Terminal Aerodrome Forecast
Issued by NWS Cleveland, OH

Home | Current Version | Previous Version | Text Only | Print | Product List | Glossary On
Versions: 1 2 3 4 5 6 7 8 9 10 11 12 13 14 15 16
828
FTUS41 KCLE 250617 AAA
TAFTOL
TAF AMD
KTOL 250617Z 2506/2606 01004KT 4SM BR OVC003
      TEMPO 2506/2510 1SM BR OVC001
     FM251000 01004KT 3SM BR OVC003
      TEMPO 2510/2514 1SM BR OVC001
     FM251400 35012KT 5SM BR BKN010
     FM251800 36012KT P6SM BKN050
     FM252000 36012KT P6SM SCT050
     FM260400 01004KT P6SM FEW130=

USA.gov is the U.S. government's official web portal to all federal, state and local government web resources and services.